createdAt,value
2023-05-20T00:00:53.257Z,100602.99
2023-05-20T00:03:21.306Z,100600.55
2023-05-20T00:05:49.424Z,100599.98
2023-05-20T00:08:19.456Z,100599.25
2023-05-20T00:10:47.401Z,100603.58
2023-05-20T00:13:15.283Z,100603.29
2023-05-20T00:15:43.258Z,100606.09
2023-05-20T00:18:11.211Z,100605.44
2023-05-20T00:20:39.373Z,100602.54
2023-05-20T00:23:07.350Z,100604.86
2023-05-20T00:25:35.671Z,100601.09
2023-05-20T00:28:03.989Z,100602.48
2023-05-20T00:30:31.964Z,100599.84
2023-05-20T00:32:59.821Z,100595.00
2023-05-20T00:35:28.111Z,100593.80
2023-05-20T00:37:56.063Z,100589.54
2023-05-20T00:40:25.104Z,100587.39
2023-05-20T00:42:53.202Z,100589.87
2023-05-20T00:45:21.342Z,100588.05
2023-05-20T00:47:49.665Z,100589.10
2023-05-20T00:50:18.139Z,100585.63
2023-05-20T00:52:48.277Z,100583.05
2023-05-20T00:55:16.771Z,100585.77
2023-05-20T00:57:44.675Z,100585.39
2023-05-20T01:00:14.179Z,100582.64
2023-05-20T01:02:42.280Z,100581.09
2023-05-20T01:05:10.840Z,100585.05
2023-05-20T01:07:38.966Z,100585.06
2023-05-20T01:10:07.538Z,100587.37
2023-05-20T01:12:54.064Z,100585.81
2023-05-20T01:15:27.009Z,100585.55
2023-05-20T01:18:01.744Z,100582.90
2023-05-20T01:20:32.658Z,100578.05
2023-05-20T01:23:00.937Z,100574.88
2023-05-20T01:25:29.392Z,100570.66
2023-05-20T01:27:58.245Z,100568.29
2023-05-20T01:30:29.953Z,100569.23
2023-05-20T01:33:02.703Z,100563.33
2023-05-20T01:35:32.220Z,100562.72
2023-05-20T01:38:01.967Z,100566.02
2023-05-20T01:40:31.556Z,100563.98
2023-05-20T01:43:01.266Z,100561.04
2023-05-20T01:45:29.427Z,100560.98
2023-05-20T01:47:57.421Z,100562.27
2023-05-20T01:50:27.045Z,100558.98
2023-05-20T01:52:55.046Z,100556.00
2023-05-20T01:55:23.128Z,100552.67
2023-05-20T01:57:51.366Z,100555.81
2023-05-20T02:00:19.227Z,100555.16
2023-05-20T02:02:47.591Z,100554.80
2023-05-20T02:05:16.652Z,100552.38
2023-05-20T02:07:44.853Z,100549.79
2023-05-20T02:10:12.847Z,100546.70
2023-05-20T02:12:40.694Z,100545.27
2023-05-20T02:15:09.134Z,100544.55
2023-05-20T02:17:37.275Z,100543.49
2023-05-20T02:20:07.802Z,100541.27
2023-05-20T02:22:36.699Z,100538.20
2023-05-20T02:25:05.389Z,100540.34
2023-05-20T02:27:33.662Z,100538.27
2023-05-20T02:30:02.170Z,100539.56
2023-05-20T02:32:30.424Z,100541.66
2023-05-20T02:34:58.340Z,100542.41
2023-05-20T02:37:26.374Z,100544.88
2023-05-20T02:39:56.294Z,100547.58
2023-05-20T02:42:24.320Z,100547.48
2023-05-20T02:44:56.527Z,100546.48
2023-05-20T02:47:25.823Z,100543.81
2023-05-20T02:49:53.950Z,100541.40
2023-05-20T02:52:23.194Z,100537.55
2023-05-20T02:54:52.956Z,100538.40
2023-05-20T02:57:21.143Z,100537.95
2023-05-20T02:59:48.964Z,100536.09
2023-05-20T03:02:17.505Z,100537.33
2023-05-20T03:04:47.014Z,100537.13
2023-05-20T03:07:17.677Z,100538.52
2023-05-20T03:09:46.009Z,100540.77
2023-05-20T03:12:14.097Z,100545.53
2023-05-20T03:14:42.213Z,100545.81
2023-05-20T03:17:11.714Z,100550.00
2023-05-20T03:19:39.758Z,100554.88
2023-05-20T03:22:07.975Z,100558.18
2023-05-20T03:24:36.159Z,100558.13
2023-05-20T03:27:04.192Z,100560.67
2023-05-20T03:29:33.539Z,100562.01
2023-05-20T03:32:01.665Z,100563.36
2023-05-20T03:34:30.395Z,100560.89
2023-05-20T03:37:00.287Z,100561.46
2023-05-20T03:39:28.434Z,100558.14
2023-05-20T03:41:56.316Z,100562.42
2023-05-20T03:44:24.179Z,100567.88
2023-05-20T03:46:52.160Z,100568.00
2023-05-20T03:49:20.174Z,100573.34
2023-05-20T03:51:48.104Z,100576.05
2023-05-20T03:54:17.530Z,100577.23
2023-05-20T03:56:49.621Z,100576.16
2023-05-20T03:59:19.040Z,100575.61
2023-05-20T04:01:47.133Z,100573.92
2023-05-20T04:04:16.086Z,100574.08
2023-05-20T04:06:44.046Z,100576.70
2023-05-20T04:09:12.650Z,100580.38
2023-05-20T04:11:40.576Z,100586.27
2023-05-20T04:14:10.602Z,100587.73
2023-05-20T04:16:39.620Z,100589.14
2023-05-20T04:19:07.968Z,100591.68
2023-05-20T04:21:35.950Z,100588.16
2023-05-20T04:24:06.989Z,100584.52
2023-05-20T04:26:35.589Z,100585.88
2023-05-20T04:29:04.247Z,100584.61
2023-05-20T04:31:33.939Z,100587.09
2023-05-20T04:34:02.835Z,100592.16
2023-05-20T04:36:31.259Z,100593.05
2023-05-20T04:39:00.706Z,100597.84
2023-05-20T04:41:29.298Z,100604.27
2023-05-20T04:44:01.538Z,100604.41
2023-05-20T04:46:30.164Z,100607.68
2023-05-20T04:48:59.718Z,100609.88
2023-05-20T04:51:27.762Z,100604.91
2023-05-20T04:53:55.895Z,100601.39
2023-05-20T04:56:23.833Z,100602.43
2023-05-20T04:58:51.811Z,100605.65
2023-05-20T05:01:20.581Z,100608.28
2023-05-20T05:03:48.456Z,100607.17
2023-05-20T05:06:16.505Z,100607.83
2023-05-20T05:08:44.663Z,100604.15
2023-05-20T05:11:12.623Z,100600.75
2023-05-20T05:13:41.148Z,100601.30
2023-05-20T05:16:09.069Z,100599.05
2023-05-20T05:18:37.340Z,100596.63
2023-05-20T05:21:06.956Z,100600.19
2023-05-20T05:23:36.273Z,100600.02
2023-05-20T05:26:04.313Z,100595.98
2023-05-20T05:28:32.286Z,100595.69
2023-05-20T05:31:02.195Z,100595.63
2023-05-20T05:33:30.526Z,100597.64
2023-05-20T05:35:59.412Z,100596.07
2023-05-20T05:38:27.967Z,100601.30
2023-05-20T05:40:56.226Z,100602.77
2023-05-20T05:43:24.297Z,100603.16
2023-05-20T05:45:52.427Z,100600.45
2023-05-20T05:48:21.436Z,100599.19
2023-05-20T05:50:50.900Z,100594.48
2023-05-20T05:53:22.206Z,100598.02
2023-05-20T05:55:50.682Z,100596.16
2023-05-20T05:58:19.070Z,100594.76
2023-05-20T06:00:47.098Z,100595.92
2023-05-20T06:03:15.304Z,100592.06
2023-05-20T06:05:47.399Z,100591.64
2023-05-20T06:08:15.476Z,100593.29
2023-05-20T06:10:50.253Z,100588.61
2023-05-20T06:13:18.656Z,100584.86
2023-05-20T06:15:46.601Z,100588.91
2023-05-20T06:18:14.496Z,100587.02
2023-05-20T06:20:43.294Z,100587.80
2023-05-20T06:23:11.419Z,100587.93
2023-05-20T06:25:47.984Z,100583.77
2023-05-20T06:28:16.648Z,100579.60
2023-05-20T06:30:44.911Z,100580.23
2023-05-20T06:33:13.421Z,100579.61
2023-05-20T06:35:41.444Z,100583.02
2023-05-20T06:38:09.517Z,100579.60
2023-05-20T06:40:38.765Z,100577.94
2023-05-20T06:43:06.673Z,100574.00
2023-05-20T06:46:10.428Z,100573.71
2023-05-20T06:48:47.659Z,100570.35
2023-05-20T06:51:15.674Z,100567.19
2023-05-20T06:53:46.627Z,100569.05
2023-05-20T06:56:15.885Z,100561.62
2023-05-20T06:58:45.104Z,100559.89
2023-05-20T07:01:13.907Z,100559.70
2023-05-20T07:03:44.330Z,100558.30
2023-05-20T07:06:12.873Z,100556.55
2023-05-20T07:08:41.194Z,100556.16
2023-05-20T07:11:10.189Z,100559.79
2023-05-20T07:13:38.106Z,100557.26
2023-05-20T07:16:07.243Z,100554.50
2023-05-20T07:18:36.943Z,100555.17
2023-05-20T07:21:04.856Z,100557.02
2023-05-20T07:23:44.009Z,100558.52
2023-05-20T07:26:12.007Z,100561.44
2023-05-20T07:28:39.957Z,100558.40
2023-05-20T07:31:08.237Z,100556.48
2023-05-20T07:33:43.003Z,100555.19
2023-05-20T07:36:11.552Z,100552.00
2023-05-20T07:38:49.742Z,100553.49
2023-05-20T07:41:25.204Z,100550.60
2023-05-20T07:43:53.229Z,100548.89
2023-05-20T07:46:21.586Z,100549.69
2023-05-20T07:48:49.898Z,100551.77
2023-05-20T07:51:19.033Z,100547.00
2023-05-20T07:53:47.515Z,100542.24
2023-05-20T07:56:16.830Z,100541.67
2023-05-20T07:58:52.993Z,100545.90
2023-05-20T08:01:22.689Z,100544.08
2023-05-20T08:03:51.630Z,100543.38
2023-05-20T08:06:24.376Z,100541.21
2023-05-20T08:08:54.189Z,100542.77
2023-05-20T08:11:25.684Z,100536.89
2023-05-20T08:13:54.187Z,100533.61
2023-05-20T08:16:24.718Z,100532.88
2023-05-20T08:18:52.570Z,100530.81
2023-05-20T08:21:24.343Z,100536.30
2023-05-20T08:23:52.335Z,100532.73
2023-05-20T08:26:20.362Z,100533.73
2023-05-20T08:28:48.707Z,100529.42
2023-05-20T08:31:18.625Z,100531.86
2023-05-20T08:33:46.942Z,100530.57
2023-05-20T08:36:16.262Z,100529.75
2023-05-20T08:38:45.316Z,100531.40
2023-05-20T08:41:13.674Z,100531.77
2023-05-20T08:43:43.886Z,100527.45
2023-05-20T08:46:12.491Z,100529.66
2023-05-20T08:48:40.657Z,100527.13
2023-05-20T08:51:11.107Z,100521.70
2023-05-20T08:53:39.949Z,100522.25
2023-05-20T08:56:09.692Z,100513.61
2023-05-20T08:58:37.990Z,100515.05
2023-05-20T09:01:07.837Z,100513.80
2023-05-20T09:03:35.698Z,100514.60
2023-05-20T09:06:08.128Z,100517.26
2023-05-20T09:08:36.575Z,100511.64
2023-05-20T09:11:04.743Z,100508.95
2023-05-20T09:13:32.821Z,100506.32
2023-05-20T09:16:02.316Z,100505.13
2023-05-20T09:18:31.015Z,100502.52
2023-05-20T09:21:06.945Z,100498.89
2023-05-20T09:23:38.670Z,100495.23
2023-05-20T09:26:06.919Z,100493.70
2023-05-20T09:28:38.416Z,100490.75
2023-05-20T09:31:07.185Z,100491.66
2023-05-20T09:33:35.689Z,100489.66
2023-05-20T09:36:05.011Z,100490.47
2023-05-20T09:38:39.093Z,100489.05
2023-05-20T09:41:11.377Z,100489.77
2023-05-20T09:43:43.125Z,100487.07
2023-05-20T09:46:11.659Z,100484.79
2023-05-20T09:48:40.141Z,100484.23
2023-05-20T09:51:11.102Z,100485.53
2023-05-20T09:53:39.147Z,100484.58
2023-05-20T09:56:07.487Z,100484.06
2023-05-20T09:58:37.026Z,100480.85
2023-05-20T10:01:06.980Z,100479.56
2023-05-20T10:03:36.203Z,100483.79
2023-05-20T10:06:10.435Z,100482.19
2023-05-20T10:09:05.959Z,100478.33
2023-05-20T10:12:04.591Z,100477.86
2023-05-20T10:14:44.136Z,100472.55
2023-05-20T10:17:12.374Z,100468.55
2023-05-20T10:19:40.313Z,100467.84
2023-05-20T10:22:09.904Z,100461.73
2023-05-20T10:24:41.022Z,100456.83
2023-05-20T10:27:11.201Z,100454.84
2023-05-20T10:29:50.492Z,100452.38
2023-05-20T10:32:33.419Z,100448.42
2023-05-20T10:35:05.243Z,100446.30
2023-05-20T10:37:42.472Z,100443.63
2023-05-20T10:40:14.450Z,100442.27
2023-05-20T10:42:43.330Z,100441.02
2023-05-20T10:45:26.238Z,100433.35
2023-05-20T10:47:58.559Z,100434.13
2023-05-20T10:50:36.102Z,100436.54
2023-05-20T10:53:18.822Z,100432.90
2023-05-20T10:55:57.541Z,100431.20
2023-05-20T10:58:25.713Z,100430.08
2023-05-20T11:00:55.144Z,100429.30
2023-05-20T11:03:24.394Z,100422.55
2023-05-20T11:05:52.485Z,100416.15
2023-05-20T11:08:29.092Z,100417.52
2023-05-20T11:10:59.549Z,100411.48
2023-05-20T11:13:27.876Z,100405.17
2023-05-20T11:15:56.095Z,100400.67
2023-05-20T11:18:24.152Z,100400.23
2023-05-20T11:20:52.654Z,100397.94
2023-05-20T11:23:20.704Z,100393.67
2023-05-20T11:25:51.139Z,100400.55
2023-05-20T11:28:21.491Z,100399.88
2023-05-20T11:30:50.005Z,100396.77
2023-05-20T11:33:19.178Z,100391.77
2023-05-20T11:35:50.022Z,100383.11
2023-05-20T11:38:29.983Z,100376.71
2023-05-20T11:40:58.704Z,100373.13
2023-05-20T11:43:32.313Z,100372.31
2023-05-20T11:46:00.710Z,100369.45
2023-05-20T11:48:30.276Z,100373.02
2023-05-20T11:51:02.140Z,100372.09
2023-05-20T11:53:30.912Z,100368.64
2023-05-20T11:56:02.246Z,100362.70
2023-05-20T11:58:31.995Z,100354.64
2023-05-20T12:01:09.475Z,100348.15
2023-05-20T12:03:48.136Z,100354.67
2023-05-20T12:06:17.675Z,100350.42
2023-05-20T12:08:46.452Z,100351.53
2023-05-20T12:11:14.545Z,100352.32
2023-05-20T12:13:42.397Z,100346.15
2023-05-20T12:16:10.488Z,100341.66
2023-05-20T12:18:38.864Z,100345.21
2023-05-20T12:21:06.782Z,100342.18
2023-05-20T12:23:34.712Z,100341.05
2023-05-20T12:26:02.776Z,100335.92
2023-05-20T12:28:32.220Z,100332.79
2023-05-20T12:31:00.144Z,100334.00
2023-05-20T12:33:28.025Z,100333.72
2023-05-20T12:35:56.191Z,100331.16
2023-05-20T12:38:24.105Z,100325.43
2023-05-20T12:40:51.978Z,100322.30
2023-05-20T12:43:19.786Z,100318.47
2023-05-20T12:45:47.732Z,100316.99
2023-05-20T12:48:15.697Z,100312.00
2023-05-20T12:50:44.137Z,100309.48
2023-05-20T12:53:12.310Z,100314.48
2023-05-20T12:55:40.666Z,100311.02
2023-05-20T12:58:09.009Z,100312.31
2023-05-20T13:00:37.157Z,100307.88
2023-05-20T13:03:05.346Z,100309.27
2023-05-20T13:05:33.389Z,100305.45
2023-05-20T13:08:01.536Z,100301.20
2023-05-20T13:10:29.422Z,100298.55
2023-05-20T13:12:57.963Z,100297.73
2023-05-20T13:15:25.774Z,100296.26
2023-05-20T13:17:54.440Z,100289.65
2023-05-20T13:20:23.041Z,100288.66
2023-05-20T13:22:51.167Z,100288.16
2023-05-20T13:25:19.173Z,100281.60
2023-05-20T13:27:47.316Z,100279.56
2023-05-20T13:30:15.667Z,100280.08
2023-05-20T13:32:43.773Z,100279.77
2023-05-20T13:35:13.226Z,100285.14
2023-05-20T13:37:41.140Z,100292.92
2023-05-20T13:40:09.521Z,100304.75
2023-05-20T13:42:37.602Z,100303.74
2023-05-20T13:45:06.352Z,100308.60
2023-05-20T13:47:34.394Z,100311.02
2023-05-20T13:50:03.415Z,100311.36
2023-05-20T13:52:31.603Z,100308.20
2023-05-20T13:54:59.536Z,100309.17
2023-05-20T13:57:27.999Z,100298.92
2023-05-20T13:59:56.223Z,100291.63
2023-05-20T14:02:24.200Z,100291.42
2023-05-20T14:04:52.262Z,100294.33
2023-05-20T14:07:20.198Z,100293.89
2023-05-20T14:09:48.136Z,100289.64
2023-05-20T14:12:16.224Z,100285.76
2023-05-20T14:14:44.147Z,100288.23
2023-05-20T14:17:12.066Z,100284.04
2023-05-20T14:19:40.054Z,100283.69
2023-05-20T14:22:08.009Z,100278.84
2023-05-20T14:24:35.904Z,100273.94
2023-05-20T14:27:04.458Z,100265.37
2023-05-20T14:29:32.520Z,100267.30
2023-05-20T14:32:01.451Z,100265.46
2023-05-20T14:34:29.474Z,100264.64
2023-05-20T14:36:57.389Z,100261.42
2023-05-20T14:39:25.438Z,100260.12
2023-05-20T14:41:53.369Z,100254.80
2023-05-20T14:44:21.406Z,100250.52
2023-05-20T14:46:49.461Z,100245.37
2023-05-20T14:49:17.302Z,100245.45
2023-05-20T14:51:45.163Z,100241.20
2023-05-20T14:54:14.542Z,100240.32
2023-05-20T14:56:43.141Z,100238.36
2023-05-20T14:59:11.575Z,100234.52
2023-05-20T15:01:39.568Z,100229.45
2023-05-20T15:04:07.529Z,100232.80
2023-05-20T15:06:36.531Z,100229.19
2023-05-20T15:09:06.182Z,100220.66
2023-05-20T15:11:34.194Z,100216.65
2023-05-20T15:14:02.311Z,100211.17
2023-05-20T15:16:30.192Z,100206.11
2023-05-20T15:19:00.658Z,100205.21
2023-05-20T15:21:28.688Z,100212.02
2023-05-20T15:23:57.344Z,100214.89
2023-05-20T15:26:26.165Z,100215.80
2023-05-20T15:28:54.027Z,100221.50
2023-05-20T15:31:23.457Z,100219.95
2023-05-20T15:33:51.496Z,100216.38
2023-05-20T15:36:19.510Z,100217.23
2023-05-20T15:38:47.319Z,100219.77
2023-05-20T15:41:16.115Z,100221.08
2023-05-20T15:43:44.164Z,100230.75
2023-05-20T15:46:12.163Z,100228.65
2023-05-20T15:48:40.150Z,100230.41
2023-05-20T15:51:08.022Z,100233.52
2023-05-20T15:53:36.120Z,100234.23
2023-05-20T15:56:05.036Z,100234.38
2023-05-20T15:58:32.817Z,100239.89
2023-05-20T16:01:01.130Z,100235.98
2023-05-20T16:03:29.763Z,100237.02
2023-05-20T16:05:57.838Z,100237.80
2023-05-20T16:08:29.526Z,100239.54
2023-05-20T16:10:57.452Z,100243.57
2023-05-20T16:13:25.548Z,100245.48
2023-05-20T16:15:57.493Z,100247.05
2023-05-20T16:18:28.778Z,100245.81
2023-05-20T16:20:57.744Z,100240.37
2023-05-20T16:23:25.675Z,100242.81
2023-05-20T16:25:53.736Z,100245.41
2023-05-20T16:28:22.381Z,100249.34
2023-05-20T16:30:50.292Z,100246.48
2023-05-20T16:33:18.230Z,100250.92
2023-05-20T16:35:46.138Z,100252.57
2023-05-20T16:38:14.170Z,100259.20
2023-05-20T16:40:42.546Z,100256.44
2023-05-20T16:43:10.486Z,100255.47
2023-05-20T16:45:38.741Z,100256.36
2023-05-20T16:48:06.727Z,100263.54
2023-05-20T16:50:34.845Z,100264.70
2023-05-20T16:53:02.920Z,100261.81
2023-05-20T16:55:31.357Z,100260.00
2023-05-20T16:57:59.254Z,100257.70
2023-05-20T17:00:27.185Z,100252.16
2023-05-20T17:02:55.237Z,100253.72
2023-05-20T17:05:25.535Z,100251.50
2023-05-20T17:07:55.821Z,100254.92
2023-05-20T17:10:23.854Z,100255.78
2023-05-20T17:12:51.912Z,100259.41
2023-05-20T17:15:19.789Z,100257.90
2023-05-20T17:17:47.811Z,100258.11
2023-05-20T17:20:15.704Z,100257.67
2023-05-20T17:22:43.731Z,100256.05
2023-05-20T17:25:11.951Z,100253.00
2023-05-20T17:27:39.905Z,100251.69
2023-05-20T17:30:08.136Z,100250.40
2023-05-20T17:32:36.196Z,100250.73
2023-05-20T17:35:08.119Z,100252.50
2023-05-20T17:37:36.942Z,100255.05
2023-05-20T17:40:08.407Z,100250.63
2023-05-20T17:42:36.275Z,100254.16
2023-05-20T17:45:04.653Z,100250.92
2023-05-20T17:47:32.690Z,100253.46
2023-05-20T17:50:02.627Z,100254.61
2023-05-20T17:52:30.974Z,100256.92
2023-05-20T17:54:58.936Z,100261.23
2023-05-20T17:57:28.144Z,100263.16
2023-05-20T17:59:56.047Z,100258.21
2023-05-20T18:02:24.062Z,100263.42
2023-05-20T18:04:52.038Z,100262.11
2023-05-20T18:07:20.546Z,100261.33
2023-05-20T18:09:48.380Z,100261.17
2023-05-20T18:12:16.292Z,100261.34
2023-05-20T18:14:44.067Z,100263.66
2023-05-20T18:17:12.040Z,100266.47
2023-05-20T18:19:39.963Z,100268.92
2023-05-20T18:22:08.097Z,100274.69
2023-05-20T18:24:36.292Z,100283.33
2023-05-20T18:27:04.450Z,100286.80
2023-05-20T18:29:32.321Z,100286.59
2023-05-20T18:32:00.239Z,100291.53
2023-05-20T18:34:28.409Z,100297.92
2023-05-20T18:36:56.656Z,100304.27
2023-05-20T18:39:24.655Z,100304.95
2023-05-20T18:41:52.668Z,100308.58
2023-05-20T18:44:20.615Z,100312.48
2023-05-20T18:46:48.694Z,100314.65
2023-05-20T18:49:16.678Z,100317.95
2023-05-20T18:51:44.713Z,100321.35
2023-05-20T18:54:12.611Z,100322.97
2023-05-20T18:56:40.571Z,100325.20
2023-05-20T18:59:08.626Z,100326.48
2023-05-20T19:01:36.862Z,100328.94
2023-05-20T19:04:05.118Z,100326.08
2023-05-20T19:06:34.877Z,100323.83
2023-05-20T19:09:03.835Z,100325.14
2023-05-20T19:11:32.145Z,100326.78
2023-05-20T19:14:00.204Z,100328.22
2023-05-20T19:16:28.193Z,100332.96
2023-05-20T19:18:56.153Z,100336.08
2023-05-20T19:21:23.999Z,100337.88
2023-05-20T19:23:52.499Z,100338.96
2023-05-20T19:26:21.029Z,100339.35
2023-05-20T19:28:48.951Z,100340.50
2023-05-20T19:31:21.138Z,100344.93
2023-05-20T19:33:50.770Z,100346.04
2023-05-20T19:36:19.369Z,100348.35
2023-05-20T19:38:47.852Z,100346.41
2023-05-20T19:41:16.327Z,100350.27
2023-05-20T19:43:44.197Z,100347.83
2023-05-20T19:46:12.198Z,100346.30
2023-05-20T19:48:40.164Z,100346.26
2023-05-20T19:51:08.071Z,100350.73
2023-05-20T19:53:37.031Z,100353.27
2023-05-20T19:56:05.344Z,100355.38
2023-05-20T19:58:33.747Z,100356.57
2023-05-20T20:01:02.207Z,100356.38
2023-05-20T20:03:30.098Z,100352.75
2023-05-20T20:05:58.076Z,100347.64
2023-05-20T20:08:26.151Z,100347.23
2023-05-20T20:10:54.220Z,100346.42
2023-05-20T20:13:22.112Z,100347.45
2023-05-20T20:15:49.975Z,100346.36
2023-05-20T20:18:17.869Z,100347.05
2023-05-20T20:20:46.008Z,100345.27
2023-05-20T20:23:14.206Z,100346.23
2023-05-20T20:25:43.051Z,100346.95
2023-05-20T20:28:11.287Z,100348.29
2023-05-20T20:30:39.262Z,100349.30
2023-05-20T20:33:09.563Z,100347.27
2023-05-20T20:35:38.389Z,100346.18
2023-05-20T20:38:10.826Z,100346.57
2023-05-20T20:40:41.759Z,100347.15
2023-05-20T20:43:11.130Z,100350.44
2023-05-20T20:45:39.094Z,100348.48
2023-05-20T20:48:08.341Z,100349.03
2023-05-20T20:50:36.643Z,100349.72
2023-05-20T20:53:04.601Z,100348.06
2023-05-20T20:55:32.699Z,100341.74
2023-05-20T20:58:05.141Z,100342.02
2023-05-20T21:00:33.875Z,100349.59
2023-05-20T21:03:02.091Z,100351.26
2023-05-20T21:05:30.351Z,100347.98
2023-05-20T21:07:59.678Z,100346.87
2023-05-20T21:10:29.277Z,100345.05
2023-05-20T21:12:58.096Z,100345.58
2023-05-20T21:15:27.455Z,100340.65
2023-05-20T21:17:55.551Z,100339.69
2023-05-20T21:20:23.465Z,100343.52
2023-05-20T21:22:51.366Z,100346.98
2023-05-20T21:25:19.306Z,100344.73
2023-05-20T21:27:47.161Z,100341.48
2023-05-20T21:30:16.487Z,100341.56
2023-05-20T21:32:44.566Z,100336.45
2023-05-20T21:35:13.453Z,100336.96
2023-05-20T21:37:41.297Z,100339.59
2023-05-20T21:40:09.465Z,100338.66
2023-05-20T21:42:37.835Z,100339.34
2023-05-20T21:45:06.720Z,100339.04
2023-05-20T21:47:34.658Z,100340.50
2023-05-20T21:50:03.588Z,100342.00
2023-05-20T21:52:31.558Z,100343.14
2023-05-20T21:54:59.439Z,100341.35
2023-05-20T21:57:27.323Z,100331.58
2023-05-20T21:59:55.133Z,100330.14
2023-05-20T22:02:23.129Z,100329.21
2023-05-20T22:04:51.255Z,100328.70
2023-05-20T22:07:19.150Z,100325.70
2023-05-20T22:09:47.093Z,100323.41
2023-05-20T22:12:15.619Z,100322.80
2023-05-20T22:14:43.723Z,100322.17
2023-05-20T22:17:11.683Z,100321.99
2023-05-20T22:19:40.304Z,100322.27
2023-05-20T22:22:08.299Z,100319.19
2023-05-20T22:24:36.276Z,100321.11
2023-05-20T22:27:04.577Z,100317.90
2023-05-20T22:29:32.741Z,100315.48
2023-05-20T22:32:00.983Z,100311.79
2023-05-20T22:34:29.066Z,100308.33
2023-05-20T22:36:58.190Z,100305.67
2023-05-20T22:39:26.173Z,100307.81
2023-05-20T22:41:54.102Z,100307.04
2023-05-20T22:44:21.980Z,100306.62
2023-05-20T22:46:49.950Z,100303.07
2023-05-20T22:49:18.987Z,100299.02
2023-05-20T22:51:46.856Z,100298.06
2023-05-20T22:54:14.650Z,100289.89
2023-05-20T22:56:42.689Z,100294.63
2023-05-20T22:59:10.832Z,100299.92
2023-05-20T23:01:38.894Z,100301.46
2023-05-20T23:04:06.925Z,100302.48
2023-05-20T23:06:38.250Z,100302.03
2023-05-20T23:09:07.465Z,100299.64
2023-05-20T23:11:35.449Z,100302.16
2023-05-20T23:14:03.609Z,100304.31
2023-05-20T23:16:31.781Z,100302.37
2023-05-20T23:18:59.878Z,100305.00
2023-05-20T23:21:27.868Z,100308.14
2023-05-20T23:23:55.693Z,100315.95
2023-05-20T23:26:24.147Z,100316.73
2023-05-20T23:28:52.055Z,100317.52
2023-05-20T23:31:20.524Z,100318.05
2023-05-20T23:33:48.975Z,100316.92
2023-05-20T23:36:17.166Z,100314.88
2023-05-20T23:38:45.124Z,100311.59
2023-05-20T23:41:13.101Z,100308.40
2023-05-20T23:43:41.248Z,100303.89
2023-05-20T23:46:09.820Z,100302.17
2023-05-20T23:48:37.621Z,100297.19
2023-05-20T23:51:07.031Z,100296.45
2023-05-20T23:53:34.832Z,100294.33
2023-05-20T23:56:02.776Z,100290.39
2023-05-20T23:58:31.013Z,100288.81
